CheckWX is a tool to help pilots better visualize weather data.  It is not intended as a substitute for an official pre-flight weather briefing.

18:29:20 UTC

BKPR METAR
Priština International Airport
Prishtina, Kosovo
Current

29 mins ago

BKPR 221800Z VRB02KT 9999 -RA SCT035 BKN060 05/01 Q1017 NOSIG RMK 17010095
Observed
Feb-22 @ 18:00 UTC
Wind
  • Variable at 2 KTS
Visibility
10,000+ meters
Flight Rules
VFR
Conditions
Light Rain
Cloud Levels
  • Scattered at 3,500' AGL
  • Broken at 6,000' AGL
Temperature
C / 41°F
Dewpoint
C / 34°F
Humidity
76%
Altimeter
30.03" Hg
Pressure
1016.92 hPa
Previous

59 mins ago

BKPR 221730Z VRB03KT 9999 SCT035 BKN065 05/01 Q1017 NOSIG RMK 17010095
Observed
Feb-22 @ 17:30 UTC
Wind
  • Variable at 3 KTS
Visibility
10,000+ meters
Flight Rules
VFR
Cloud Levels
  • Scattered at 3,500' AGL
  • Broken at 6,500' AGL
Temperature
C / 41°F
Dewpoint
C / 34°F
Humidity
76%
Altimeter
30.03" Hg
Pressure
1016.92 hPa
Previous

1 hour ago

BKPR 221700Z 34004KT 8000 SCT035 BKN065 05/01 Q1017 NOSIG RMK 17010095
Observed
Feb-22 @ 17:00 UTC
Wind
  • 340° at 4 KTS
Visibility
7,998 meters
Flight Rules
MVFR
Cloud Levels
  • Scattered at 3,500' AGL
  • Broken at 6,500' AGL
Temperature
C / 41°F
Dewpoint
C / 34°F
Humidity
76%
Altimeter
30.03" Hg
Pressure
1016.92 hPa